sensor_id;sensor_type;location;lat;lon;timestamp;P1;durP1;ratioP1;P2;durP2;ratioP2
4432;SDS011;2229;48.708;9.706;2023-05-15T00:02:18;3.53;;;1.67;;
4432;SDS011;2229;48.708;9.706;2023-05-15T00:04:46;3.00;;;1.80;;
4432;SDS011;2229;48.708;9.706;2023-05-15T00:07:14;3.13;;;1.73;;
4432;SDS011;2229;48.708;9.706;2023-05-15T00:09:41;2.93;;;1.77;;
4432;SDS011;2229;48.708;9.706;2023-05-15T00:12:08;3.20;;;1.77;;
4432;SDS011;2229;48.708;9.706;2023-05-15T00:14:37;3.87;;;1.90;;
4432;SDS011;2229;48.708;9.706;2023-05-15T00:17:04;2.67;;;1.60;;
4432;SDS011;2229;48.708;9.706;2023-05-15T00:19:32;2.77;;;1.27;;
4432;SDS011;2229;48.708;9.706;2023-05-15T00:21:59;2.83;;;1.20;;
4432;SDS011;2229;48.708;9.706;2023-05-15T00:24:26;3.70;;;1.67;;
4432;SDS011;2229;48.708;9.706;2023-05-15T00:26:53;3.47;;;1.80;;
4432;SDS011;2229;48.708;9.706;2023-05-15T00:29:20;3.77;;;1.97;;
4432;SDS011;2229;48.708;9.706;2023-05-15T00:31:49;4.27;;;1.70;;
4432;SDS011;2229;48.708;9.706;2023-05-15T00:34:17;2.07;;;1.47;;
4432;SDS011;2229;48.708;9.706;2023-05-15T00:36:45;7.40;;;2.10;;
4432;SDS011;2229;48.708;9.706;2023-05-15T00:39:12;3.80;;;1.47;;
4432;SDS011;2229;48.708;9.706;2023-05-15T00:41:40;2.70;;;1.47;;
4432;SDS011;2229;48.708;9.706;2023-05-15T00:44:08;3.43;;;1.70;;
4432;SDS011;2229;48.708;9.706;2023-05-15T00:46:37;3.73;;;1.73;;
4432;SDS011;2229;48.708;9.706;2023-05-15T00:49:07;4.60;;;1.70;;
4432;SDS011;2229;48.708;9.706;2023-05-15T00:51:39;2.10;;;1.30;;
4432;SDS011;2229;48.708;9.706;2023-05-15T00:54:06;2.80;;;1.33;;
4432;SDS011;2229;48.708;9.706;2023-05-15T00:56:34;3.50;;;1.87;;
4432;SDS011;2229;48.708;9.706;2023-05-15T00:59:05;3.43;;;1.70;;
4432;SDS011;2229;48.708;9.706;2023-05-15T01:01:32;2.40;;;1.33;;
4432;SDS011;2229;48.708;9.706;2023-05-15T01:04:01;3.63;;;1.63;;
4432;SDS011;2229;48.708;9.706;2023-05-15T01:06:30;3.27;;;1.90;;
4432;SDS011;2229;48.708;9.706;2023-05-15T01:08:59;4.20;;;1.90;;
4432;SDS011;2229;48.708;9.706;2023-05-15T01:11:28;4.30;;;1.87;;
4432;SDS011;2229;48.708;9.706;2023-05-15T01:14:01;3.13;;;1.57;;
4432;SDS011;2229;48.708;9.706;2023-05-15T01:16:30;3.73;;;1.60;;
4432;SDS011;2229;48.708;9.706;2023-05-15T01:18:58;3.37;;;1.80;;
4432;SDS011;2229;48.708;9.706;2023-05-15T01:24:37;3.60;;;1.80;;
4432;SDS011;2229;48.708;9.706;2023-05-15T01:27:29;2.10;;;1.20;;
4432;SDS011;2229;48.708;9.706;2023-05-15T01:30:03;4.70;;;1.50;;
4432;SDS011;2229;48.708;9.706;2023-05-15T01:32:40;3.23;;;1.40;;
4432;SDS011;2229;48.708;9.706;2023-05-15T01:35:12;2.70;;;1.43;;
4432;SDS011;2229;48.708;9.706;2023-05-15T01:37:45;3.47;;;2.17;;
4432;SDS011;2229;48.708;9.706;2023-05-15T01:40:17;2.67;;;1.30;;
4432;SDS011;2229;48.708;9.706;2023-05-15T01:42:50;3.00;;;1.50;;
4432;SDS011;2229;48.708;9.706;2023-05-15T01:45:20;3.50;;;1.93;;
4432;SDS011;2229;48.708;9.706;2023-05-15T01:47:49;3.40;;;1.60;;
4432;SDS011;2229;48.708;9.706;2023-05-15T01:50:20;2.93;;;1.30;;
4432;SDS011;2229;48.708;9.706;2023-05-15T01:52:49;3.90;;;1.70;;
4432;SDS011;2229;48.708;9.706;2023-05-15T01:55:19;5.23;;;1.83;;
4432;SDS011;2229;48.708;9.706;2023-05-15T01:57:47;4.20;;;2.37;;
4432;SDS011;2229;48.708;9.706;2023-05-15T02:00:17;2.20;;;1.47;;
4432;SDS011;2229;48.708;9.706;2023-05-15T02:02:47;4.20;;;1.57;;
4432;SDS011;2229;48.708;9.706;2023-05-15T02:05:17;3.60;;;2.10;;
4432;SDS011;2229;48.708;9.706;2023-05-15T02:07:45;3.20;;;1.17;;
4432;SDS011;2229;48.708;9.706;2023-05-15T02:10:14;4.23;;;1.80;;
4432;SDS011;2229;48.708;9.706;2023-05-15T02:12:46;2.00;;;1.13;;
4432;SDS011;2229;48.708;9.706;2023-05-15T02:15:16;5.30;;;2.30;;
4432;SDS011;2229;48.708;9.706;2023-05-15T02:17:45;4.03;;;2.17;;
4432;SDS011;2229;48.708;9.706;2023-05-15T02:20:12;4.00;;;2.33;;
4432;SDS011;2229;48.708;9.706;2023-05-15T02:22:40;3.20;;;2.17;;
4432;SDS011;2229;48.708;9.706;2023-05-15T02:25:07;3.40;;;1.70;;
4432;SDS011;2229;48.708;9.706;2023-05-15T02:27:37;4.63;;;2.07;;
4432;SDS011;2229;48.708;9.706;2023-05-15T02:30:17;3.93;;;1.90;;
4432;SDS011;2229;48.708;9.706;2023-05-15T02:32:55;4.00;;;1.90;;
4432;SDS011;2229;48.708;9.706;2023-05-15T02:35:31;3.57;;;1.80;;
4432;SDS011;2229;48.708;9.706;2023-05-15T02:38:04;4.30;;;2.70;;
4432;SDS011;2229;48.708;9.706;2023-05-15T02:40:36;4.47;;;2.27;;
4432;SDS011;2229;48.708;9.706;2023-05-15T02:43:05;4.30;;;2.03;;
4432;SDS011;2229;48.708;9.706;2023-05-15T02:45:35;4.27;;;2.37;;
4432;SDS011;2229;48.708;9.706;2023-05-15T02:48:05;7.23;;;2.90;;
4432;SDS011;2229;48.708;9.706;2023-05-15T02:50:34;5.43;;;2.60;;
4432;SDS011;2229;48.708;9.706;2023-05-15T02:53:01;3.87;;;2.43;;
4432;SDS011;2229;48.708;9.706;2023-05-15T02:55:29;3.73;;;2.50;;
4432;SDS011;2229;48.708;9.706;2023-05-15T02:57:56;7.70;;;3.27;;
4432;SDS011;2229;48.708;9.706;2023-05-15T03:00:25;4.23;;;2.43;;
4432;SDS011;2229;48.708;9.706;2023-05-15T03:02:54;5.00;;;2.43;;
4432;SDS011;2229;48.708;9.706;2023-05-15T03:05:21;4.47;;;2.43;;
4432;SDS011;2229;48.708;9.706;2023-05-15T03:07:49;4.03;;;2.63;;
4432;SDS011;2229;48.708;9.706;2023-05-15T03:10:16;5.20;;;2.37;;
4432;SDS011;2229;48.708;9.706;2023-05-15T03:12:43;7.17;;;3.00;;
4432;SDS011;2229;48.708;9.706;2023-05-15T03:15:10;4.00;;;2.20;;
4432;SDS011;2229;48.708;9.706;2023-05-15T03:17:37;6.23;;;2.90;;
4432;SDS011;2229;48.708;9.706;2023-05-15T03:20:07;5.40;;;3.60;;
4432;SDS011;2229;48.708;9.706;2023-05-15T03:22:35;4.13;;;2.37;;
4432;SDS011;2229;48.708;9.706;2023-05-15T03:25:03;7.43;;;3.53;;
4432;SDS011;2229;48.708;9.706;2023-05-15T03:27:30;3.93;;;2.40;;
4432;SDS011;2229;48.708;9.706;2023-05-15T03:29:58;4.20;;;2.07;;
4432;SDS011;2229;48.708;9.706;2023-05-15T03:32:25;6.67;;;2.70;;
4432;SDS011;2229;48.708;9.706;2023-05-15T03:34:53;5.13;;;2.73;;
4432;SDS011;2229;48.708;9.706;2023-05-15T03:37:21;6.00;;;2.27;;
4432;SDS011;2229;48.708;9.706;2023-05-15T03:39:48;5.07;;;2.23;;
4432;SDS011;2229;48.708;9.706;2023-05-15T03:42:16;6.10;;;2.20;;
4432;SDS011;2229;48.708;9.706;2023-05-15T03:44:47;5.47;;;3.27;;
4432;SDS011;2229;48.708;9.706;2023-05-15T03:47:15;5.10;;;2.83;;
4432;SDS011;2229;48.708;9.706;2023-05-15T03:49:42;4.50;;;2.87;;
4432;SDS011;2229;48.708;9.706;2023-05-15T03:52:09;5.80;;;2.97;;
4432;SDS011;2229;48.708;9.706;2023-05-15T03:54:37;4.73;;;2.30;;
4432;SDS011;2229;48.708;9.706;2023-05-15T03:57:05;4.63;;;2.67;;
4432;SDS011;2229;48.708;9.706;2023-05-15T03:59:32;5.87;;;3.20;;
4432;SDS011;2229;48.708;9.706;2023-05-15T04:01:59;5.53;;;3.40;;
4432;SDS011;2229;48.708;9.706;2023-05-15T04:04:27;3.57;;;2.00;;
4432;SDS011;2229;48.708;9.706;2023-05-15T04:06:55;3.43;;;1.87;;
4432;SDS011;2229;48.708;9.706;2023-05-15T04:09:22;4.23;;;2.60;;
4432;SDS011;2229;48.708;9.706;2023-05-15T04:11:51;3.90;;;2.70;;
4432;SDS011;2229;48.708;9.706;2023-05-15T04:14:18;7.03;;;2.50;;
4432;SDS011;2229;48.708;9.706;2023-05-15T04:16:45;4.00;;;2.30;;
4432;SDS011;2229;48.708;9.706;2023-05-15T04:19:12;3.83;;;2.07;;
4432;SDS011;2229;48.708;9.706;2023-05-15T04:21:40;5.87;;;3.13;;
4432;SDS011;2229;48.708;9.706;2023-05-15T04:24:07;3.87;;;1.90;;
4432;SDS011;2229;48.708;9.706;2023-05-15T04:26:34;6.47;;;2.93;;
4432;SDS011;2229;48.708;9.706;2023-05-15T04:29:03;4.10;;;2.33;;
4432;SDS011;2229;48.708;9.706;2023-05-15T04:31:30;3.73;;;2.30;;
4432;SDS011;2229;48.708;9.706;2023-05-15T04:33:59;4.87;;;2.73;;
4432;SDS011;2229;48.708;9.706;2023-05-15T04:36:28;3.30;;;1.90;;
4432;SDS011;2229;48.708;9.706;2023-05-15T04:38:56;7.50;;;3.47;;
4432;SDS011;2229;48.708;9.706;2023-05-15T04:41:23;4.93;;;1.93;;
4432;SDS011;2229;48.708;9.706;2023-05-15T04:43:51;6.00;;;2.97;;
4432;SDS011;2229;48.708;9.706;2023-05-15T04:46:19;4.90;;;2.37;;
4432;SDS011;2229;48.708;9.706;2023-05-15T04:48:46;6.53;;;3.13;;
4432;SDS011;2229;48.708;9.706;2023-05-15T04:51:14;5.23;;;2.03;;
4432;SDS011;2229;48.708;9.706;2023-05-15T04:53:41;4.20;;;2.03;;
4432;SDS011;2229;48.708;9.706;2023-05-15T04:56:08;3.97;;;2.43;;
4432;SDS011;2229;48.708;9.706;2023-05-15T04:58:35;6.50;;;2.90;;
4432;SDS011;2229;48.708;9.706;2023-05-15T05:01:03;3.40;;;2.03;;
4432;SDS011;2229;48.708;9.706;2023-05-15T05:03:31;3.93;;;2.00;;
4432;SDS011;2229;48.708;9.706;2023-05-15T05:05:59;4.53;;;2.47;;
4432;SDS011;2229;48.708;9.706;2023-05-15T05:08:26;4.60;;;2.10;;
4432;SDS011;2229;48.708;9.706;2023-05-15T05:10:54;6.83;;;2.30;;
4432;SDS011;2229;48.708;9.706;2023-05-15T05:13:22;4.80;;;2.90;;
4432;SDS011;2229;48.708;9.706;2023-05-15T05:15:49;7.40;;;2.90;;
4432;SDS011;2229;48.708;9.706;2023-05-15T05:18:17;6.00;;;2.80;;
4432;SDS011;2229;48.708;9.706;2023-05-15T05:20:46;5.40;;;3.00;;
4432;SDS011;2229;48.708;9.706;2023-05-15T05:23:14;4.00;;;2.50;;
4432;SDS011;2229;48.708;9.706;2023-05-15T05:25:42;5.27;;;2.70;;
4432;SDS011;2229;48.708;9.706;2023-05-15T05:28:10;4.60;;;2.93;;
4432;SDS011;2229;48.708;9.706;2023-05-15T05:30:37;5.83;;;2.40;;
4432;SDS011;2229;48.708;9.706;2023-05-15T05:33:04;3.90;;;2.60;;
4432;SDS011;2229;48.708;9.706;2023-05-15T05:35:32;6.47;;;3.23;;
4432;SDS011;2229;48.708;9.706;2023-05-15T05:38:01;3.90;;;2.53;;
4432;SDS011;2229;48.708;9.706;2023-05-15T05:40:28;4.50;;;2.60;;
4432;SDS011;2229;48.708;9.706;2023-05-15T05:42:57;6.80;;;2.47;;
4432;SDS011;2229;48.708;9.706;2023-05-15T05:45:25;5.13;;;3.07;;
4432;SDS011;2229;48.708;9.706;2023-05-15T05:47:53;4.47;;;2.50;;
4432;SDS011;2229;48.708;9.706;2023-05-15T05:50:21;4.57;;;2.80;;
4432;SDS011;2229;48.708;9.706;2023-05-15T05:52:48;6.77;;;2.50;;
4432;SDS011;2229;48.708;9.706;2023-05-15T05:55:17;4.60;;;2.33;;
4432;SDS011;2229;48.708;9.706;2023-05-15T05:57:44;4.70;;;2.10;;
4432;SDS011;2229;48.708;9.706;2023-05-15T06:00:11;3.90;;;2.20;;
4432;SDS011;2229;48.708;9.706;2023-05-15T06:02:39;3.27;;;1.93;;
4432;SDS011;2229;48.708;9.706;2023-05-15T06:05:07;7.47;;;2.70;;
4432;SDS011;2229;48.708;9.706;2023-05-15T06:07:35;4.57;;;1.90;;
4432;SDS011;2229;48.708;9.706;2023-05-15T06:10:03;4.27;;;2.23;;
4432;SDS011;2229;48.708;9.706;2023-05-15T06:12:33;4.57;;;1.90;;
4432;SDS011;2229;48.708;9.706;2023-05-15T06:15:01;4.13;;;2.20;;
4432;SDS011;2229;48.708;9.706;2023-05-15T06:17:28;6.03;;;2.30;;
4432;SDS011;2229;48.708;9.706;2023-05-15T06:19:56;4.37;;;2.50;;
4432;SDS011;2229;48.708;9.706;2023-05-15T06:22:23;4.53;;;2.50;;
4432;SDS011;2229;48.708;9.706;2023-05-15T06:24:51;5.53;;;2.87;;
4432;SDS011;2229;48.708;9.706;2023-05-15T06:27:18;3.10;;;1.80;;
4432;SDS011;2229;48.708;9.706;2023-05-15T06:29:46;3.30;;;2.03;;
4432;SDS011;2229;48.708;9.706;2023-05-15T06:32:13;6.20;;;2.77;;
4432;SDS011;2229;48.708;9.706;2023-05-15T06:34:41;12.70;;;3.57;;
4432;SDS011;2229;48.708;9.706;2023-05-15T06:37:08;6.67;;;3.27;;
4432;SDS011;2229;48.708;9.706;2023-05-15T06:39:35;5.93;;;2.70;;
4432;SDS011;2229;48.708;9.706;2023-05-15T06:42:02;6.10;;;3.33;;
4432;SDS011;2229;48.708;9.706;2023-05-15T06:44:30;8.00;;;3.47;;
4432;SDS011;2229;48.708;9.706;2023-05-15T06:46:59;4.67;;;2.93;;
4432;SDS011;2229;48.708;9.706;2023-05-15T06:49:26;4.80;;;2.97;;
4432;SDS011;2229;48.708;9.706;2023-05-15T06:51:54;8.87;;;3.30;;
4432;SDS011;2229;48.708;9.706;2023-05-15T06:54:21;6.53;;;3.40;;
4432;SDS011;2229;48.708;9.706;2023-05-15T06:56:48;5.23;;;3.17;;
4432;SDS011;2229;48.708;9.706;2023-05-15T06:59:16;5.37;;;2.97;;
4432;SDS011;2229;48.708;9.706;2023-05-15T07:01:43;6.00;;;3.27;;
4432;SDS011;2229;48.708;9.706;2023-05-15T07:04:12;4.83;;;3.10;;
4432;SDS011;2229;48.708;9.706;2023-05-15T07:06:39;3.33;;;2.30;;
4432;SDS011;2229;48.708;9.706;2023-05-15T07:09:06;5.87;;;3.30;;
4432;SDS011;2229;48.708;9.706;2023-05-15T07:11:34;6.90;;;3.20;;
4432;SDS011;2229;48.708;9.706;2023-05-15T07:14:03;5.50;;;3.07;;
4432;SDS011;2229;48.708;9.706;2023-05-15T07:16:31;10.20;;;3.63;;
4432;SDS011;2229;48.708;9.706;2023-05-15T07:18:59;5.67;;;3.33;;
4432;SDS011;2229;48.708;9.706;2023-05-15T07:21:27;7.77;;;3.70;;
4432;SDS011;2229;48.708;9.706;2023-05-15T07:23:55;5.40;;;2.90;;
4432;SDS011;2229;48.708;9.706;2023-05-15T07:26:22;6.90;;;3.47;;
4432;SDS011;2229;48.708;9.706;2023-05-15T07:28:49;6.30;;;4.23;;
4432;SDS011;2229;48.708;9.706;2023-05-15T07:31:16;6.17;;;3.00;;
4432;SDS011;2229;48.708;9.706;2023-05-15T07:33:43;5.00;;;2.70;;
4432;SDS011;2229;48.708;9.706;2023-05-15T07:36:10;6.93;;;4.10;;
4432;SDS011;2229;48.708;9.706;2023-05-15T07:38:39;6.80;;;3.70;;
4432;SDS011;2229;48.708;9.706;2023-05-15T07:41:07;4.30;;;2.80;;
4432;SDS011;2229;48.708;9.706;2023-05-15T07:43:34;6.03;;;2.93;;
4432;SDS011;2229;48.708;9.706;2023-05-15T07:46:01;4.90;;;2.60;;
4432;SDS011;2229;48.708;9.706;2023-05-15T07:48:29;7.10;;;3.70;;
4432;SDS011;2229;48.708;9.706;2023-05-15T07:50:56;7.70;;;4.30;;
4432;SDS011;2229;48.708;9.706;2023-05-15T07:53:24;5.20;;;2.70;;
4432;SDS011;2229;48.708;9.706;2023-05-15T07:55:53;5.03;;;2.80;;
4432;SDS011;2229;48.708;9.706;2023-05-15T07:58:20;5.83;;;3.13;;
4432;SDS011;2229;48.708;9.706;2023-05-15T08:00:47;4.30;;;2.63;;
4432;SDS011;2229;48.708;9.706;2023-05-15T08:03:16;5.23;;;3.17;;
4432;SDS011;2229;48.708;9.706;2023-05-15T08:05:43;4.00;;;2.67;;
4432;SDS011;2229;48.708;9.706;2023-05-15T08:08:10;7.50;;;3.60;;
4432;SDS011;2229;48.708;9.706;2023-05-15T08:10:37;6.00;;;3.50;;
4432;SDS011;2229;48.708;9.706;2023-05-15T08:13:06;4.57;;;2.57;;
4432;SDS011;2229;48.708;9.706;2023-05-15T08:15:33;4.77;;;2.93;;
4432;SDS011;2229;48.708;9.706;2023-05-15T08:18:00;7.83;;;3.03;;
4432;SDS011;2229;48.708;9.706;2023-05-15T08:20:33;5.50;;;2.67;;
4432;SDS011;2229;48.708;9.706;2023-05-15T08:23:00;4.97;;;3.00;;
4432;SDS011;2229;48.708;9.706;2023-05-15T08:25:27;4.40;;;2.80;;
4432;SDS011;2229;48.708;9.706;2023-05-15T08:27:54;6.10;;;2.90;;
4432;SDS011;2229;48.708;9.706;2023-05-15T08:30:23;3.20;;;1.90;;
4432;SDS011;2229;48.708;9.706;2023-05-15T08:32:50;5.70;;;2.73;;
4432;SDS011;2229;48.708;9.706;2023-05-15T08:35:18;3.50;;;2.10;;
4432;SDS011;2229;48.708;9.706;2023-05-15T08:37:45;5.17;;;2.80;;
4432;SDS011;2229;48.708;9.706;2023-05-15T08:40:13;4.13;;;2.33;;
4432;SDS011;2229;48.708;9.706;2023-05-15T08:42:42;3.43;;;2.43;;
4432;SDS011;2229;48.708;9.706;2023-05-15T08:45:11;3.63;;;2.20;;
4432;SDS011;2229;48.708;9.706;2023-05-15T08:47:41;7.43;;;3.70;;
4432;SDS011;2229;48.708;9.706;2023-05-15T08:50:09;4.47;;;2.90;;
4432;SDS011;2229;48.708;9.706;2023-05-15T08:52:39;8.10;;;2.90;;
4432;SDS011;2229;48.708;9.706;2023-05-15T08:55:07;6.43;;;2.70;;
4432;SDS011;2229;48.708;9.706;2023-05-15T08:57:36;3.90;;;2.60;;
4432;SDS011;2229;48.708;9.706;2023-05-15T09:00:04;5.50;;;2.37;;
4432;SDS011;2229;48.708;9.706;2023-05-15T09:02:34;5.33;;;1.97;;
4432;SDS011;2229;48.708;9.706;2023-05-15T09:05:03;3.90;;;2.07;;
4432;SDS011;2229;48.708;9.706;2023-05-15T09:07:32;5.27;;;2.57;;
4432;SDS011;2229;48.708;9.706;2023-05-15T09:10:00;4.40;;;2.17;;
4432;SDS011;2229;48.708;9.706;2023-05-15T09:12:31;3.93;;;2.10;;
4432;SDS011;2229;48.708;9.706;2023-05-15T09:15:09;4.60;;;2.63;;
4432;SDS011;2229;48.708;9.706;2023-05-15T09:17:41;2.83;;;1.40;;
4432;SDS011;2229;48.708;9.706;2023-05-15T09:20:24;5.03;;;3.57;;
4432;SDS011;2229;48.708;9.706;2023-05-15T09:22:53;6.10;;;2.80;;
4432;SDS011;2229;48.708;9.706;2023-05-15T09:25:34;5.00;;;1.83;;
4432;SDS011;2229;48.708;9.706;2023-05-15T09:28:03;4.47;;;2.53;;
4432;SDS011;2229;48.708;9.706;2023-05-15T09:30:31;3.40;;;2.10;;
4432;SDS011;2229;48.708;9.706;2023-05-15T09:32:59;6.33;;;2.53;;
4432;SDS011;2229;48.708;9.706;2023-05-15T09:35:31;4.20;;;2.40;;
4432;SDS011;2229;48.708;9.706;2023-05-15T09:37:59;3.07;;;2.03;;
4432;SDS011;2229;48.708;9.706;2023-05-15T09:40:27;6.80;;;2.57;;
4432;SDS011;2229;48.708;9.706;2023-05-15T09:42:56;3.30;;;1.93;;
4432;SDS011;2229;48.708;9.706;2023-05-15T09:45:24;2.50;;;1.50;;
4432;SDS011;2229;48.708;9.706;2023-05-15T09:47:54;4.73;;;1.87;;
4432;SDS011;2229;48.708;9.706;2023-05-15T09:50:23;3.10;;;1.43;;
4432;SDS011;2229;48.708;9.706;2023-05-15T09:52:59;2.10;;;1.43;;
4432;SDS011;2229;48.708;9.706;2023-05-15T09:55:26;2.83;;;1.67;;
4432;SDS011;2229;48.708;9.706;2023-05-15T09:58:03;2.70;;;1.30;;
4432;SDS011;2229;48.708;9.706;2023-05-15T10:00:35;4.07;;;2.07;;
4432;SDS011;2229;48.708;9.706;2023-05-15T10:03:03;3.40;;;1.70;;
4432;SDS011;2229;48.708;9.706;2023-05-15T10:05:31;3.80;;;2.13;;
4432;SDS011;2229;48.708;9.706;2023-05-15T10:08:01;2.90;;;1.20;;
4432;SDS011;2229;48.708;9.706;2023-05-15T10:10:29;2.20;;;1.70;;
4432;SDS011;2229;48.708;9.706;2023-05-15T10:12:57;4.37;;;2.27;;
4432;SDS011;2229;48.708;9.706;2023-05-15T10:15:29;3.13;;;1.83;;
4432;SDS011;2229;48.708;9.706;2023-05-15T10:17:56;4.40;;;2.30;;
4432;SDS011;2229;48.708;9.706;2023-05-15T10:20:25;4.07;;;2.53;;
4432;SDS011;2229;48.708;9.706;2023-05-15T10:22:53;3.73;;;2.07;;
4432;SDS011;2229;48.708;9.706;2023-05-15T10:25:26;4.33;;;2.43;;
4432;SDS011;2229;48.708;9.706;2023-05-15T10:28:05;3.23;;;2.10;;
4432;SDS011;2229;48.708;9.706;2023-05-15T10:30:35;3.63;;;1.70;;
4432;SDS011;2229;48.708;9.706;2023-05-15T10:33:05;3.63;;;2.03;;
4432;SDS011;2229;48.708;9.706;2023-05-15T10:35:33;2.97;;;1.60;;
4432;SDS011;2229;48.708;9.706;2023-05-15T10:38:02;3.80;;;2.40;;
4432;SDS011;2229;48.708;9.706;2023-05-15T10:40:32;2.60;;;1.50;;
4432;SDS011;2229;48.708;9.706;2023-05-15T10:43:03;2.37;;;1.70;;
4432;SDS011;2229;48.708;9.706;2023-05-15T10:45:31;3.60;;;2.20;;
4432;SDS011;2229;48.708;9.706;2023-05-15T10:47:59;3.27;;;2.17;;
4432;SDS011;2229;48.708;9.706;2023-05-15T10:50:28;2.63;;;1.80;;
4432;SDS011;2229;48.708;9.706;2023-05-15T10:52:55;2.57;;;1.70;;
4432;SDS011;2229;48.708;9.706;2023-05-15T10:55:22;3.20;;;1.90;;
4432;SDS011;2229;48.708;9.706;2023-05-15T10:57:51;3.13;;;1.73;;
4432;SDS011;2229;48.708;9.706;2023-05-15T11:00:25;3.40;;;1.70;;
4432;SDS011;2229;48.708;9.706;2023-05-15T11:02:55;2.67;;;1.67;;
4432;SDS011;2229;48.708;9.706;2023-05-15T11:05:23;2.17;;;1.43;;
4432;SDS011;2229;48.708;9.706;2023-05-15T11:10:51;2.40;;;1.70;;
4432;SDS011;2229;48.708;9.706;2023-05-15T11:13:20;1.77;;;1.30;;
4432;SDS011;2229;48.708;9.706;2023-05-15T11:15:48;3.93;;;1.20;;
4432;SDS011;2229;48.708;9.706;2023-05-15T11:18:15;2.37;;;1.33;;
4432;SDS011;2229;48.708;9.706;2023-05-15T11:23:36;5.37;;;2.17;;
4432;SDS011;2229;48.708;9.706;2023-05-15T11:26:05;3.50;;;1.47;;
4432;SDS011;2229;48.708;9.706;2023-05-15T11:28:39;2.43;;;1.60;;
4432;SDS011;2229;48.708;9.706;2023-05-15T11:31:09;3.47;;;1.33;;
4432;SDS011;2229;48.708;9.706;2023-05-15T11:33:37;2.67;;;1.77;;
4432;SDS011;2229;48.708;9.706;2023-05-15T11:36:06;3.00;;;1.60;;
4432;SDS011;2229;48.708;9.706;2023-05-15T11:38:37;3.63;;;1.73;;
4432;SDS011;2229;48.708;9.706;2023-05-15T11:41:18;2.97;;;1.23;;
4432;SDS011;2229;48.708;9.706;2023-05-15T11:43:50;2.17;;;1.40;;
4432;SDS011;2229;48.708;9.706;2023-05-15T11:46:18;3.00;;;1.23;;
4432;SDS011;2229;48.708;9.706;2023-05-15T11:48:47;2.40;;;1.57;;
4432;SDS011;2229;48.708;9.706;2023-05-15T11:51:16;3.10;;;1.77;;
4432;SDS011;2229;48.708;9.706;2023-05-15T11:53:46;3.50;;;1.87;;
4432;SDS011;2229;48.708;9.706;2023-05-15T11:56:17;2.60;;;1.60;;
4432;SDS011;2229;48.708;9.706;2023-05-15T11:58:49;2.10;;;1.30;;
4432;SDS011;2229;48.708;9.706;2023-05-15T12:01:21;2.53;;;1.63;;
4432;SDS011;2229;48.708;9.706;2023-05-15T12:03:48;2.00;;;1.33;;
4432;SDS011;2229;48.708;9.706;2023-05-15T12:06:18;2.60;;;1.20;;
4432;SDS011;2229;48.708;9.706;2023-05-15T12:08:49;3.70;;;1.90;;
4432;SDS011;2229;48.708;9.706;2023-05-15T12:11:17;1.97;;;1.40;;
4432;SDS011;2229;48.708;9.706;2023-05-15T12:13:51;3.87;;;1.70;;
4432;SDS011;2229;48.708;9.706;2023-05-15T12:16:22;2.97;;;1.97;;
4432;SDS011;2229;48.708;9.706;2023-05-15T12:18:50;3.17;;;1.30;;
4432;SDS011;2229;48.708;9.706;2023-05-15T12:21:18;3.33;;;1.80;;
4432;SDS011;2229;48.708;9.706;2023-05-15T12:23:49;4.90;;;1.63;;
4432;SDS011;2229;48.708;9.706;2023-05-15T12:26:17;3.63;;;1.70;;
4432;SDS011;2229;48.708;9.706;2023-05-15T12:28:45;4.13;;;1.70;;
4432;SDS011;2229;48.708;9.706;2023-05-15T12:31:14;2.80;;;1.43;;
4432;SDS011;2229;48.708;9.706;2023-05-15T12:33:43;3.87;;;1.80;;
4432;SDS011;2229;48.708;9.706;2023-05-15T12:36:11;1.93;;;1.13;;
4432;SDS011;2229;48.708;9.706;2023-05-15T12:38:38;4.70;;;2.07;;
4432;SDS011;2229;48.708;9.706;2023-05-15T12:41:05;2.57;;;1.47;;
4432;SDS011;2229;48.708;9.706;2023-05-15T12:43:36;2.50;;;1.33;;
4432;SDS011;2229;48.708;9.706;2023-05-15T12:46:04;2.50;;;1.20;;
4432;SDS011;2229;48.708;9.706;2023-05-15T12:48:32;1.70;;;1.20;;
4432;SDS011;2229;48.708;9.706;2023-05-15T12:51:03;2.40;;;1.40;;
4432;SDS011;2229;48.708;9.706;2023-05-15T12:53:32;3.70;;;1.57;;
4432;SDS011;2229;48.708;9.706;2023-05-15T12:55:59;2.60;;;1.07;;
4432;SDS011;2229;48.708;9.706;2023-05-15T12:58:27;2.23;;;1.00;;
4432;SDS011;2229;48.708;9.706;2023-05-15T13:00:54;1.40;;;0.80;;
4432;SDS011;2229;48.708;9.706;2023-05-15T13:03:23;1.83;;;1.07;;
4432;SDS011;2229;48.708;9.706;2023-05-15T13:05:53;1.83;;;0.93;;
4432;SDS011;2229;48.708;9.706;2023-05-15T13:08:21;1.43;;;0.93;;
4432;SDS011;2229;48.708;9.706;2023-05-15T13:10:54;2.30;;;1.20;;
4432;SDS011;2229;48.708;9.706;2023-05-15T13:13:22;1.40;;;0.70;;
4432;SDS011;2229;48.708;9.706;2023-05-15T13:15:49;2.20;;;0.83;;
4432;SDS011;2229;48.708;9.706;2023-05-15T13:18:17;1.77;;;1.00;;
4432;SDS011;2229;48.708;9.706;2023-05-15T13:20:46;2.80;;;1.13;;
4432;SDS011;2229;48.708;9.706;2023-05-15T13:23:17;1.83;;;1.03;;
4432;SDS011;2229;48.708;9.706;2023-05-15T13:25:45;2.20;;;1.40;;
4432;SDS011;2229;48.708;9.706;2023-05-15T13:28:13;4.27;;;1.30;;
4432;SDS011;2229;48.708;9.706;2023-05-15T13:30:40;3.77;;;1.73;;
4432;SDS011;2229;48.708;9.706;2023-05-15T13:33:08;2.00;;;1.10;;
4432;SDS011;2229;48.708;9.706;2023-05-15T13:35:37;2.47;;;1.17;;
4432;SDS011;2229;48.708;9.706;2023-05-15T13:38:05;2.30;;;1.10;;
4432;SDS011;2229;48.708;9.706;2023-05-15T13:40:34;4.20;;;1.37;;
4432;SDS011;2229;48.708;9.706;2023-05-15T13:43:02;2.80;;;1.30;;
4432;SDS011;2229;48.708;9.706;2023-05-15T13:45:30;1.90;;;1.20;;
4432;SDS011;2229;48.708;9.706;2023-05-15T13:47:58;2.23;;;1.03;;
4432;SDS011;2229;48.708;9.706;2023-05-15T13:50:26;2.23;;;1.27;;
4432;SDS011;2229;48.708;9.706;2023-05-15T13:52:53;2.30;;;1.30;;
4432;SDS011;2229;48.708;9.706;2023-05-15T13:55:21;2.27;;;1.27;;
4432;SDS011;2229;48.708;9.706;2023-05-15T13:57:51;2.17;;;1.17;;
4432;SDS011;2229;48.708;9.706;2023-05-15T14:00:19;2.50;;;0.90;;
4432;SDS011;2229;48.708;9.706;2023-05-15T14:02:46;1.70;;;0.80;;
4432;SDS011;2229;48.708;9.706;2023-05-15T14:05:14;1.53;;;0.97;;
4432;SDS011;2229;48.708;9.706;2023-05-15T14:07:42;2.63;;;1.40;;
4432;SDS011;2229;48.708;9.706;2023-05-15T14:10:09;1.90;;;1.27;;
4432;SDS011;2229;48.708;9.706;2023-05-15T14:12:37;9.13;;;2.30;;
4432;SDS011;2229;48.708;9.706;2023-05-15T14:15:06;3.70;;;2.20;;
4432;SDS011;2229;48.708;9.706;2023-05-15T14:17:36;2.33;;;1.00;;
4432;SDS011;2229;48.708;9.706;2023-05-15T14:20:04;2.07;;;0.93;;
4432;SDS011;2229;48.708;9.706;2023-05-15T14:22:32;2.30;;;1.03;;
4432;SDS011;2229;48.708;9.706;2023-05-15T14:24:59;2.70;;;1.33;;
4432;SDS011;2229;48.708;9.706;2023-05-15T14:27:28;3.00;;;1.07;;
4432;SDS011;2229;48.708;9.706;2023-05-15T14:29:55;2.70;;;1.10;;
4432;SDS011;2229;48.708;9.706;2023-05-15T14:32:24;4.33;;;1.53;;
4432;SDS011;2229;48.708;9.706;2023-05-15T14:34:51;6.70;;;1.67;;
4432;SDS011;2229;48.708;9.706;2023-05-15T14:37:18;2.50;;;1.57;;
4432;SDS011;2229;48.708;9.706;2023-05-15T14:39:46;3.17;;;1.40;;
4432;SDS011;2229;48.708;9.706;2023-05-15T14:42:13;2.23;;;1.37;;
4432;SDS011;2229;48.708;9.706;2023-05-15T14:44:41;2.17;;;1.10;;
4432;SDS011;2229;48.708;9.706;2023-05-15T14:47:09;4.00;;;1.90;;
4432;SDS011;2229;48.708;9.706;2023-05-15T14:49:39;2.80;;;1.30;;
4432;SDS011;2229;48.708;9.706;2023-05-15T14:52:07;2.73;;;1.50;;
4432;SDS011;2229;48.708;9.706;2023-05-15T14:54:36;1.77;;;1.17;;
4432;SDS011;2229;48.708;9.706;2023-05-15T14:57:04;2.47;;;1.40;;
4432;SDS011;2229;48.708;9.706;2023-05-15T14:59:32;4.47;;;1.57;;
4432;SDS011;2229;48.708;9.706;2023-05-15T15:01:59;1.87;;;1.10;;
4432;SDS011;2229;48.708;9.706;2023-05-15T15:04:27;2.13;;;1.33;;
4432;SDS011;2229;48.708;9.706;2023-05-15T15:07:01;2.47;;;0.90;;
4432;SDS011;2229;48.708;9.706;2023-05-15T15:09:29;1.90;;;0.97;;
4432;SDS011;2229;48.708;9.706;2023-05-15T15:11:56;1.50;;;0.77;;
4432;SDS011;2229;48.708;9.706;2023-05-15T15:14:23;3.43;;;1.40;;
4432;SDS011;2229;48.708;9.706;2023-05-15T15:16:50;4.93;;;1.53;;
4432;SDS011;2229;48.708;9.706;2023-05-15T15:19:19;2.57;;;1.30;;
4432;SDS011;2229;48.708;9.706;2023-05-15T15:21:47;2.00;;;1.10;;
4432;SDS011;2229;48.708;9.706;2023-05-15T15:24:16;2.03;;;1.30;;
4432;SDS011;2229;48.708;9.706;2023-05-15T15:26:44;3.10;;;1.20;;
4432;SDS011;2229;48.708;9.706;2023-05-15T15:29:11;2.33;;;1.20;;
4432;SDS011;2229;48.708;9.706;2023-05-15T15:31:39;2.50;;;1.10;;
4432;SDS011;2229;48.708;9.706;2023-05-15T15:34:06;1.93;;;1.00;;